Flight Track Log - Related Links

Times and Time Zones

All times are in EST time to prevent confusion due to time zone crossing. See the N922QS flight status page for this flight to view local times or setup timezone preferences in your user account.

Time Position Orientation Groundspeed Altitude Reporting Facility
EST Latitude Longitude Course Direction KTS MPH feet Rate Location/Type
Wed 10:06:51 AM 40.8167 -74.1167 270° West 199 229 1,500  Level New York TRACON
Wed 10:07:45 AM 40.8167 -74.1833 270° West 210 242 4,000 3,263 Climbing New York TRACON
Wed 10:08:45 AM 40.8167 -74.2667 270° West 250 288 7,700 3,036 Climbing New York TRACON
Wed 10:10:31 AM 40.8147 -74.4481 269° West 285 328 12,400 2,422 Climbing New York Center
Wed 10:11:31 AM 40.8128 -74.5794 269° West 328 377 14,400 1,900 Climbing New York Center
Wed 10:12:31 AM 40.8131 -74.6972 270° West 349 402 16,200 1,900 Climbing New York Center
Wed 10:13:31 AM 40.8083 -74.8369 267° West 354 407 18,200 1,850 Climbing New York Center
Wed 10:14:31 AM 40.8083 -74.9547 270° West 354 407 19,900 1,800 Climbing New York Center
Wed 10:15:31 AM 40.8058 -75.0833 269° West 349 402 21,800 1,850 Climbing New York Center
Wed 10:16:31 AM 40.7928 -75.2114 262° West 349 402 23,600 1,750 Climbing New York Center
Wed 10:17:31 AM 40.7683 -75.3550 257° West 356 410 25,300 1,450 Climbing New York Center
Wed 10:18:31 AM 40.7369 -75.4681 250° West 362 417 26,500 1,450 Climbing New York Center
Wed 10:19:31 AM 40.6906 -75.5881 243° Southwest 367 422 28,200 1,650 Climbing New York Center
Wed 10:20:31 AM 40.6458 -75.7106 244° Southwest 372 428 29,800 1,550 Climbing New York Center
Wed 10:21:31 AM 40.6011 -75.8278 243° Southwest 372 428 31,300 1,600 Climbing New York Center
Wed 10:22:31 AM 40.5456 -75.9603 241° Southwest 372 428 33,000 1,500 Climbing New York Center
Wed 10:23:31 AM 40.5006 -76.0797 244° Southwest 377 434 34,300 1,300 Climbing New York Center
Wed 10:24:31 AM 40.4553 -76.2017 244° Southwest 377 434 35,600 1,300 Climbing New York Center
Wed 10:25:31 AM 40.4103 -76.3236 244° Southwest 377 434 36,900 1,100 Climbing New York Center
Wed 10:26:31 AM 40.3606 -76.4475 242° Southwest 377 434 37,800 850 Climbing New York Center
Wed 10:27:31 AM 40.3292 -76.5783 253° West 377 434 38,600 700 Climbing New York Center
Wed 10:28:31 AM 40.3078 -76.7156 258° West 377 434 39,200 600 Climbing New York Center
Wed 10:29:31 AM 40.2864 -76.8469 258° West 377 434 39,800 600 Climbing New York Center
Wed 10:30:31 AM 40.2853 -76.9911 269° West 384 442 40,400 600 Climbing New York Center
Wed 10:31:31 AM 40.2881 -77.1303 272° West 389 448 41,000 600 Climbing New York Center
Wed 10:32:31 AM 40.2931 -77.2722 273° West 389 448 41,600 559 Climbing New York Center
Wed 10:34:55 AM 40.3025 -77.5825 272° West 386 444 42,900 408 Climbing Cleveland Center
Wed 10:35:57 AM 40.3075 -77.7511 272° West 388 447 43,000 48 Climbing Cleveland Center
Wed 10:36:59 AM 40.3100 -77.8947 271° West 395 455 43,000  Level Cleveland Center
Wed 10:38:01 AM 40.3133 -78.0397 272° West 400 460 43,000  Level Cleveland Center
Wed 10:39:03 AM 40.3169 -78.1847 272° West 400 460 43,000  Level Cleveland Center
Wed 10:40:05 AM 40.3197 -78.3308 271° West 401 461 43,000 242 Level Cleveland Center
Wed 10:41:07 AM 40.3228 -78.5056 271° West 401 461 43,500 242 Climbing Cleveland Center
Wed 10:42:09 AM 40.3256 -78.6483 272° West 395 455 43,500 48 Level Cleveland Center
Wed 10:43:12 AM 40.3275 -78.7911 271° West 394 453 43,600 192 Climbing Cleveland Center
Wed 10:44:14 AM 40.3292 -78.9336 271° West 393 452 43,900 145 Climbing Cleveland Center
Wed 10:45:16 AM 40.3314 -79.0758 271° West 393 452 43,900  Level Cleveland Center
Wed 10:46:18 AM 40.3333 -79.2181 271° West 392 451 43,900 48 Level Cleveland Center
Wed 10:47:20 AM 40.3356 -79.3808 271° West 397 457 44,000 48 Climbing Cleveland Center
Wed 10:48:22 AM 40.3369 -79.5228 271° West 393 452 44,000  Level Cleveland Center
Wed 10:49:24 AM 40.3378 -79.6653 270° West 392 451 44,000  Level Cleveland Center
Wed 10:50:26 AM 40.3386 -79.8072 270° West 391 450 44,000  Level Cleveland Center
Wed 10:51:28 AM 40.3392 -79.9492 270° West 389 448 44,000  Level Cleveland Center
Wed 10:52:30 AM 40.3397 -80.0975 270° West 389 448 44,000  Level Cleveland Center
Wed 10:53:32 AM 40.3422 -80.2669 271° West 390 449 44,000  Level Cleveland Center
Wed 10:54:34 AM 40.3417 -80.4150 270° West 392 451 44,000  Level Cleveland Center
Wed 10:55:36 AM 40.3414 -80.5564 270° West 390 449 44,000  Level Cleveland Center
Wed 10:56:38 AM 40.3414 -80.6992 270° West 393 452 44,000  Level Cleveland Center
Wed 10:57:40 AM 40.3406 -80.8417 270° West 391 450 44,000  Level Cleveland Center
Wed 10:58:42 AM 40.3400 -80.9822 270° West 388 447 44,000  Level Cleveland Center
Wed 10:59:43 AM 40.3383 -81.1264 269° West 396 456 44,000  Level Cleveland Center
Wed 11:00:45 AM 40.3378 -81.2678 270° West 391 450 44,000  Level Cleveland Center
Wed 11:01:31 AM 40.3356 -81.4025 269° West 389 448 44,000  Level Indianapolis Center
Wed 11:02:32 AM 40.3353 -81.5444 270° West 386 444 44,000  Level Indianapolis Center
Wed 11:03:34 AM 40.3336 -81.6889 269° West 390 449 44,000  Level Indianapolis Center
Wed 11:04:36 AM 40.3317 -81.8319 269° West 389 448 44,000  Level Indianapolis Center
Wed 11:05:38 AM 40.3311 -81.9750 270° West 389 448 44,000  Level Indianapolis Center
Wed 11:06:40 AM 40.3292 -82.1206 269° West 392 451 44,000  Level Indianapolis Center
Wed 11:07:41 AM 40.3272 -82.2650 269° West 392 451 44,000  Level Indianapolis Center
Wed 11:08:43 AM 40.3247 -82.4078 269° West 390 449 44,000  Level Indianapolis Center
Wed 11:09:45 AM 40.3219 -82.5531 269° West 393 452 44,000  Level Indianapolis Center
Wed 11:10:47 AM 40.3194 -82.6972 269° West 392 451 44,000  Level Indianapolis Center
Wed 11:11:48 AM 40.3167 -82.8414 269° West 393 452 44,000  Level Indianapolis Center
Wed 11:12:50 AM 40.3136 -83.0114 269° West 393 452 44,000  Level Indianapolis Center
Wed 11:13:52 AM 40.3094 -83.1525 268° West 391 450 44,000  Level Indianapolis Center
Wed 11:14:54 AM 40.3069 -83.2922 269° West 388 447 44,000  Level Indianapolis Center
Wed 11:15:56 AM 40.3033 -83.4331 268° West 390 449 44,000  Level Indianapolis Center
Wed 11:16:58 AM 40.2997 -83.5722 268° West 387 445 44,000  Level Indianapolis Center
Wed 11:17:59 AM 40.2969 -83.7125 269° West 388 447 44,000  Level Indianapolis Center
Wed 11:19:01 AM 40.2911 -83.8811 267° West 390 449 44,000  Level Indianapolis Center
Wed 11:20:03 AM 40.2878 -84.0217 268° West 388 447 44,000  Level Indianapolis Center
Wed 11:21:05 AM 40.2836 -84.1628 268° West 390 449 44,000  Level Indianapolis Center
Wed 11:22:07 AM 40.2781 -84.3033 267° West 389 448 44,000  Level Indianapolis Center
Wed 11:23:08 AM 40.2747 -84.4442 268° West 389 448 44,000  Level Indianapolis Center
Wed 11:24:10 AM 40.2678 -84.5861 266° West 391 450 44,000  Level Indianapolis Center
Wed 11:25:12 AM 40.2639 -84.7561 268° West 389 448 44,000  Level Indianapolis Center
Wed 11:26:14 AM 40.2572 -84.9014 267° West 393 452 44,000  Level Indianapolis Center
Wed 11:27:15 AM 40.2508 -85.0442 267° West 395 455 44,000  Level Indianapolis Center
Wed 11:28:17 AM 40.2453 -85.1864 267° West 393 452 44,000  Level Indianapolis Center
Wed 11:29:19 AM 40.2394 -85.3300 267° West 396 456 44,000  Level Indianapolis Center
Wed 11:30:20 AM 40.2389 -85.4722 270° West 394 453 44,000  Level Indianapolis Center
Wed 11:31:22 AM 40.2453 -85.6450 273° West 397 457 44,000  Level Indianapolis Center
Wed 11:32:24 AM 40.2508 -85.7878 273° West 397 457 44,000  Level Indianapolis Center
Wed 11:33:26 AM 40.2556 -85.9297 273° West 396 456 44,000  Level Indianapolis Center
Wed 11:34:27 AM 40.2592 -86.0725 272° West 397 457 44,000  Level Indianapolis Center
Wed 11:35:04 AM 40.2628 -86.1556 273° West 394 453 44,000  Level Chicago Center
Wed 11:36:06 AM 40.2669 -86.2981 272° West 395 455 44,000  Level Chicago Center
Wed 11:37:07 AM 40.2717 -86.4686 272° West 395 455 44,000  Level Chicago Center
Wed 11:38:09 AM 40.2747 -86.6133 272° West 398 458 44,000  Level Chicago Center
Wed 11:39:11 AM 40.2772 -86.7567 271° West 399 459 44,000  Level Chicago Center
Wed 11:40:13 AM 40.2814 -86.9008 272° West 398 458 44,000  Level Chicago Center
Wed 11:41:14 AM 40.2844 -87.0450 272° West 398 458 44,000  Level Chicago Center
Wed 11:42:16 AM 40.2867 -87.1889 271° West 399 459 44,000  Level Chicago Center
Wed 11:43:18 AM 40.2903 -87.3639 272° West 402 463 44,000  Level Chicago Center
Wed 11:44:20 AM 40.2928 -87.5125 271° West 402 463 44,000  Level Chicago Center
Wed 11:45:22 AM 40.2931 -87.6583 270° West 400 460 44,000  Level Chicago Center
Wed 11:46:24 AM 40.2914 -87.8044 269° West 402 463 44,000  Level Chicago Center
Wed 11:47:25 AM 40.2894 -87.9481 269° West 398 458 44,000  Level Chicago Center
Wed 11:48:27 AM 40.2878 -88.0922 269° West 397 457 44,000  Level Chicago Center
Wed 11:49:29 AM 40.2858 -88.2361 269° West 396 456 44,000  Level Chicago Center
Wed 11:50:31 AM 40.2831 -88.4081 269° West 395 455 44,000  Level Chicago Center
Wed 11:51:33 AM 40.2806 -88.5353 269° West 396 456 44,000  Level Chicago Center
Wed 11:52:35 AM 40.2783 -88.6789 269° West 395 455 44,000  Level Chicago Center
Wed 11:53:37 AM 40.2736 -88.8511 268° West 397 457 44,000  Level Chicago Center
Wed 11:54:39 AM 40.2714 -88.9944 269° West 394 453 44,000  Level Chicago Center
Wed 11:55:41 AM 40.2683 -89.1392 268° West 397 457 44,000  Level Chicago Center
Wed 11:56:43 AM 40.2639 -89.2847 268° West 399 459 44,000  Level Chicago Center
Wed 11:57:45 AM 40.2600 -89.4292 268° West 399 459 44,000  Level Chicago Center
Wed 11:58:47 AM 40.2558 -89.5750 268° West 400 460 44,000  Level Chicago Center
Wed 11:59:22 AM 40.2539 -89.6631 268° West 396 456 44,000  Level Kansas City Center
Wed 12:00:24 PM 40.2492 -89.8111 268° West 400 460 44,000  Level Kansas City Center
Wed 12:01:27 PM 40.2447 -89.9592 268° West 404 465 44,000  Level Kansas City Center
Wed 12:02:29 PM 40.2403 -90.1364 268° West 403 464 44,000  Level Kansas City Center
Wed 12:03:31 PM 40.2344 -90.2856 267° West 406 467 44,000  Level Kansas City Center
Wed 12:04:33 PM 40.2300 -90.4344 268° West 407 468 44,000  Level Kansas City Center
Wed 12:05:35 PM 40.2250 -90.5836 268° West 409 471 44,000  Level Kansas City Center
Wed 12:06:37 PM 40.2194 -90.7325 267° West 409 471 44,000  Level Kansas City Center
Wed 12:07:39 PM 40.2133 -90.8814 267° West 410 472 44,000  Level Kansas City Center
Wed 12:08:41 PM 40.2069 -91.0461 267° West 411 473 44,000  Level Kansas City Center
Wed 12:09:43 PM 40.2008 -91.1947 267° West 412 474 44,000  Level Kansas City Center
Wed 12:10:45 PM 40.1944 -91.3442 267° West 413 475 44,000  Level Kansas City Center
Wed 12:11:47 PM 40.1881 -91.4928 267° West 413 475 44,000  Level Kansas City Center
Wed 12:12:49 PM 40.1800 -91.6708 267° West 412 474 44,000  Level Kansas City Center
Wed 12:13:51 PM 40.1728 -91.8200 266° West 413 475 44,000  Level Kansas City Center
Wed 12:14:53 PM 40.1667 -91.9697 267° West 414 476 44,000  Level Kansas City Center
Wed 12:15:55 PM 40.1589 -92.1194 266° West 414 476 44,000  Level Kansas City Center
Wed 12:16:57 PM 40.1514 -92.2694 266° West 414 476 44,000  Level Kansas City Center
Wed 12:17:59 PM 40.1419 -92.4433 266° West 414 476 44,000  Level Kansas City Center
Wed 12:19:01 PM 40.1333 -92.5889 266° West 418 481 44,000  Level Kansas City Center
Wed 12:20:03 PM 40.1008 -92.7489 255° West 412 474 44,000  Level Kansas City Center
Wed 12:21:06 PM 40.0708 -92.8861 254° West 410 472 44,000  Level Kansas City Center
Wed 12:22:08 PM 40.0369 -93.0347 253° West 410 472 44,000  Level Kansas City Center
Wed 12:23:10 PM 40.0058 -93.1764 254° West 409 471 44,000  Level Kansas City Center
Wed 12:24:12 PM 39.9753 -93.3178 254° West 408 470 44,000  Level Kansas City Center
Wed 12:25:14 PM 39.9361 -93.4861 253° West 406 467 44,000  Level Kansas City Center
Wed 12:26:16 PM 39.9069 -93.6278 255° West 407 468 44,000  Level Kansas City Center
Wed 12:27:18 PM 39.8756 -93.7675 254° West 407 468 44,000  Level Kansas City Center
Wed 12:28:20 PM 39.8428 -93.9072 253° West 406 467 44,000  Level Kansas City Center
Wed 12:29:22 PM 39.8250 -94.0514 261° West 408 470 44,000  Level Kansas City Center
Wed 12:30:24 PM 39.8203 -94.2311 268° West 412 474 44,000  Level Kansas City Center
Wed 12:31:26 PM 39.8142 -94.3728 267° West 413 475 44,000  Level Kansas City Center
Wed 12:32:28 PM 39.8097 -94.5406 268° West 417 480 44,000  Level Kansas City Center
Wed 12:33:30 PM 39.8042 -94.6822 267° West 412 474 44,000  Level Kansas City Center
Wed 12:34:32 PM 39.7872 -94.8206 261° West 408 470 44,000  Level Kansas City Center
Wed 12:35:34 PM 39.7425 -94.9717 249° West 403 464 44,000  Level Kansas City Center
Wed 12:36:36 PM 39.7039 -95.1033 249° West 407 468 44,000  Level Kansas City Center
Wed 12:37:38 PM 39.6586 -95.2536 249° West 404 465 44,000  Level Kansas City Center
Wed 12:38:41 PM 39.6206 -95.3836 249° West 406 467 44,000  Level Kansas City Center
Wed 12:39:43 PM 39.5750 -95.5367 249° West 409 471 44,000  Level Kansas City Center
Wed 12:40:45 PM 39.5350 -95.6669 248° West 411 473 44,000  Level Kansas City Center
Wed 12:41:47 PM 39.4892 -95.8183 249° West 407 468 44,000  Level Kansas City Center
Wed 12:42:49 PM 39.4500 -95.9483 249° West 407 468 44,000  Level Kansas City Center
Wed 12:43:51 PM 39.4033 -96.1017 249° West 410 472 44,000  Level Kansas City Center
Wed 12:44:53 PM 39.3583 -96.2481 248° West 415 478 44,000  Level Kansas City Center
Wed 12:45:55 PM 39.3144 -96.3853 248° West 414 476 44,000  Level Kansas City Center
Wed 12:46:57 PM 39.2736 -96.5214 249° West 418 481 44,000  Level Kansas City Center
Wed 12:47:59 PM 39.2244 -96.6761 248° West 417 480 44,000  Level Kansas City Center
Wed 12:49:01 PM 39.1828 -96.8100 248° West 420 483 44,000  Level Kansas City Center
Wed 12:50:03 PM 39.1333 -96.9661 248° West 421 484 44,000  Level Kansas City Center
Wed 12:51:05 PM 39.0922 -97.1000 248° West 422 486 44,000  Level Kansas City Center
Wed 12:52:07 PM 39.0422 -97.2581 248° West 425 489 44,000  Level Kansas City Center
Wed 12:53:09 PM 39.0003 -97.3908 248° West 420 483 44,000  Level Kansas City Center
Wed 12:54:11 PM 38.9500 -97.5436 247° West 416 479 44,000  Level Kansas City Center
Wed 12:55:13 PM 38.9178 -97.6792 253° West 416 479 44,000  Level Kansas City Center
Wed 12:56:15 PM 38.8983 -97.8436 261° West 420 483 44,000  Level Kansas City Center
Wed 12:57:17 PM 38.8806 -97.9936 261° West 424 488 44,000  Level Kansas City Center
Wed 12:58:20 PM 38.8614 -98.1417 261° West 423 487 44,000  Level Kansas City Center
Wed 12:59:22 PM 38.8431 -98.2914 261° West 426 490 44,000  Level Kansas City Center
Wed 01:00:24 PM 38.8239 -98.4417 261° West 428 493 44,000  Level Kansas City Center
Wed 01:01:26 PM 38.8039 -98.5928 260° West 430 495 44,000  Level Kansas City Center
Wed 01:02:28 PM 38.7800 -98.7750 261° West 434 499 44,000  Level Kansas City Center
Wed 01:03:30 PM 38.7600 -98.9278 261° West 437 503 44,000  Level Kansas City Center
Wed 01:04:32 PM 38.7397 -99.0819 260° West 439 505 44,000  Level Kansas City Center
Wed 01:05:34 PM 38.7203 -99.2361 261° West 441 507 44,000  Level Kansas City Center
Wed 01:06:36 PM 38.6983 -99.3908 260° West 441 507 44,000  Level Kansas City Center
Wed 01:07:38 PM 38.6728 -99.5692 260° West 443 510 44,000  Level Kansas City Center
Wed 01:08:40 PM 38.6536 -99.7183 261° West 444 511 44,000  Level Kansas City Center
Wed 01:09:42 PM 38.6281 -99.8906 259° West 442 509 44,000  Level Kansas City Center
Wed 01:10:44 PM 38.6083 -100.0394 260° West 444 511 44,000  Level Kansas City Center
Wed 01:11:46 PM 38.5825 -100.2100 259° West 441 507 44,000  Level Kansas City Center
Wed 01:12:48 PM 38.5611 -100.3564 259° West 441 507 44,000  Level Kansas City Center
Wed 01:13:50 PM 38.5364 -100.5269 260° West 439 505 44,000  Level Kansas City Center
Wed 01:14:52 PM 38.5147 -100.6706 259° West 435 501 44,000  Level Kansas City Center
Wed 01:15:54 PM 38.4897 -100.8372 259° West 431 496 44,000  Level Kansas City Center
Wed 01:16:42 PM 38.4722 -100.9547 259° West 429 494 44,000  Level Denver Center
Wed 01:17:44 PM 38.4514 -101.0967 259° West 427 491 44,000  Level Denver Center
Wed 01:18:46 PM 38.4258 -101.2592 259° West 421 484 44,000  Level Denver Center
Wed 01:19:48 PM 38.4036 -101.4011 259° West 427 491 44,000  Level Denver Center
Wed 01:20:50 PM 38.3778 -101.5642 259° West 424 488 44,000  Level Denver Center
Wed 01:21:52 PM 38.3558 -101.7067 259° West 429 494 44,000  Level Denver Center
Wed 01:22:54 PM 38.3289 -101.8747 258° West 433 498 44,000  Level Denver Center
Wed 01:23:56 PM 38.3056 -102.0203 258° West 438 504 44,000  Level Denver Center
Wed 01:24:58 PM 38.2794 -102.1900 259° West 439 505 44,000  Level Denver Center
Wed 01:26:00 PM 38.2542 -102.3364 258° West 440 506 44,000  Level Denver Center
Wed 01:27:02 PM 38.2272 -102.5033 258° West 434 499 44,000  Level Denver Center
Wed 01:28:04 PM 38.2031 -102.6478 258° West 435 501 44,000  Level Denver Center
Wed 01:29:06 PM 38.1647 -102.8106 253° West 432 497 44,000  Level Denver Center
Wed 01:30:09 PM 38.1294 -102.9472 252° West 430 495 44,000  Level Denver Center
Wed 01:31:11 PM 38.0875 -103.1094 252° West 433 498 44,000  Level Denver Center
Wed 01:32:13 PM 38.0494 -103.2586 252° West 435 501 44,000  Level Denver Center
Wed 01:33:15 PM 38.0131 -103.3994 252° West 440 506 44,000  Level Denver Center
Wed 01:34:17 PM 37.9697 -103.5642 252° West 443 510 44,000  Level Denver Center
Wed 01:35:19 PM 37.9308 -103.7083 251° West 451 519 44,000  Level Denver Center
Wed 01:36:21 PM 37.8867 -103.8764 252° West 452 520 44,000  Level Denver Center
Wed 01:37:23 PM 37.8483 -104.0214 252° West 457 526 44,000  Level Denver Center
Wed 01:38:25 PM 37.8019 -104.1906 251° West 461 531 44,000  Level Denver Center
Wed 01:39:27 PM 37.7633 -104.3350 251° West 458 527 44,000  Level Denver Center
Wed 01:40:29 PM 37.7178 -104.5006 251° West 451 519 44,000  Level Denver Center
Wed 01:41:31 PM 37.6792 -104.6428 251° West 449 517 44,000  Level Denver Center
Wed 01:42:34 PM 37.6336 -104.8083 251° West 448 516 44,000  Level Denver Center
Wed 01:43:35 PM 37.5928 -104.9514 250° West 453 521 44,000  Level Denver Center
Wed 01:44:38 PM 37.5464 -105.1169 251° West 450 518 44,000  Level Denver Center
Wed 01:45:40 PM 37.5094 -105.2528 251° West 447 514 44,000  Level Denver Center
Wed 01:46:42 PM 37.4619 -105.4197 250° West 453 521 44,000  Level Denver Center
Wed 01:47:44 PM 37.4214 -105.5608 250° West 450 518 44,000  Level Denver Center
Wed 01:48:46 PM 37.3733 -105.7278 250° West 453 521 44,000  Level Denver Center
Wed 01:49:48 PM 37.3344 -105.8717 251° West 455 524 44,000  Level Denver Center
Wed 01:50:50 PM 37.2925 -106.0408 253° West 455 524 44,000  Level Denver Center
Wed 01:51:52 PM 37.2556 -106.1850 252° West 453 521 44,000  Level Denver Center
Wed 01:52:54 PM 37.2106 -106.3533 251° West 456 525 44,000  Level Denver Center
Wed 01:53:56 PM 37.1728 -106.4983 252° West 457 526 44,000  Level Denver Center
Wed 01:54:58 PM 37.1289 -106.6681 252° West 458 527 44,000  Level Denver Center
Wed 01:56:00 PM 37.0917 -106.8131 252° West 457 526 44,000  Level Denver Center
Wed 01:57:02 PM 37.0486 -106.9828 252° West 458 527 44,000  Level Denver Center
Wed 01:58:04 PM 37.0097 -107.1272 251° West 457 526 44,000  Level Denver Center
Wed 01:59:06 PM 36.9658 -107.2953 252° West 456 525 44,000  Level Denver Center
Wed 02:00:09 PM 36.9283 -107.4389 252° West 453 521 44,000  Level Denver Center
Wed 02:01:11 PM 36.8833 -107.6036 251° West 450 518 44,000  Level Denver Center
Wed 02:02:13 PM 36.8439 -107.7444 251° West 449 517 44,000  Level Denver Center
Wed 02:03:15 PM 36.8011 -107.9103 252° West 449 517 44,000  Level Denver Center
Wed 02:04:17 PM 36.7617 -108.0500 251° West 447 514 44,000  Level Denver Center
Wed 02:05:19 PM 36.7311 -108.1931 255° West 447 514 44,000  Level Denver Center
Wed 02:06:21 PM 36.6994 -108.3619 257° West 448 516 44,000  Level Denver Center
Wed 02:07:23 PM 36.6689 -108.5050 255° West 449 517 44,000  Level Denver Center
Wed 02:08:25 PM 36.5808 -108.6414 231° Southwest 454 522 44,000  Level Denver Center
Wed 02:09:27 PM 36.5344 -108.7778 247° West 448 516 44,000  Level Denver Center
Wed 02:10:29 PM 36.5019 -108.9442 256° West 448 516 44,000  Level Denver Center
Wed 02:11:31 PM 36.4747 -109.0861 257° West 445 512 44,000  Level Denver Center
Wed 02:12:33 PM 36.4422 -109.2542 257° West 450 518 44,000  Level Denver Center
Wed 02:13:35 PM 36.4150 -109.3986 257° West 451 519 44,000  Level Denver Center
Wed 02:14:38 PM 36.3814 -109.5683 256° West 455 524 44,000  Level Denver Center
Wed 02:15:40 PM 36.3519 -109.7128 256° West 454 522 44,000  Level Denver Center
Wed 02:16:42 PM 36.3178 -109.8831 256° West 456 525 44,000  Level Denver Center
Wed 02:17:44 PM 36.2883 -110.0289 256° West 456 525 44,000  Level Denver Center
Wed 02:18:46 PM 36.2578 -110.1819 256° West 458 527 44,000  Level Denver Center
Wed 02:19:48 PM 36.2211 -110.3658 256° West 459 528 44,000  Level Denver Center
Wed 02:20:50 PM 36.1878 -110.5206 255° West 462 532 44,000  Level Denver Center
Wed 02:21:52 PM 36.1572 -110.6731 256° West 460 529 44,000  Level Denver Center
Wed 02:22:54 PM 36.1247 -110.8269 255° West 461 531 44,000  Level Denver Center
Wed 02:23:55 PM 36.0931 -110.9792 256° West 459 528 44,000  Level Denver Center
Wed 02:24:57 PM 36.0608 -111.1333 256° West 462 532 44,000  Level Denver Center
Wed 02:25:59 PM 36.0272 -111.2869 255° West 462 532 44,000  Level Denver Center
Wed 02:27:01 PM 35.9886 -111.4722 256° West 463 533 44,000  Level Denver Center
Wed 02:28:03 PM 35.9558 -111.6242 255° West 461 531 44,000  Level Denver Center
Wed 02:28:44 PM 35.9331 -111.7200 254° West 463 533 44,000  Level Los Angeles Center
Wed 02:29:46 PM 35.9008 -111.8728 255° West 461 531 44,000  Level Los Angeles Center
Wed 02:30:48 PM 35.8625 -112.0514 255° West 454 522 44,000  Level Los Angeles Center
Wed 02:31:51 PM 35.8292 -112.2036 255° West 458 527 44,000  Level Los Angeles Center
Wed 02:32:53 PM 35.7950 -112.3556 255° West 460 529 44,000  Level Los Angeles Center
Wed 02:33:55 PM 35.7603 -112.5094 255° West 464 534 44,000  Level Los Angeles Center
Wed 02:34:57 PM 35.7231 -112.6678 254° West 465 535 44,000  Level Los Angeles Center
Wed 02:35:59 PM 35.6900 -112.8214 255° West 463 533 44,000  Level Los Angeles Center
Wed 02:37:01 PM 35.6539 -112.9742 254° West 465 535 44,000  Level Los Angeles Center
Wed 02:38:03 PM 35.6189 -113.1256 254° West 463 533 44,000  Level Los Angeles Center
Wed 02:39:06 PM 35.5769 -113.3094 254° West 464 534 44,000  Level Los Angeles Center
Wed 02:40:08 PM 35.5417 -113.4622 254° West 466 536 44,000  Level Los Angeles Center
Wed 02:41:10 PM 35.4967 -113.6106 250° West 468 539 44,000  Level Los Angeles Center
Wed 02:42:12 PM 35.4325 -113.7514 241° Southwest 471 542 44,000 -435 Level Los Angeles Center
Wed 02:43:14 PM 35.3594 -113.8853 236° Southwest 471 542 43,100 -1,210 Descending Los Angeles Center
Wed 02:44:16 PM 35.2875 -114.0197 237° Southwest 471 542 41,500 -1,226 Descending Los Angeles Center
Wed 02:45:31 PM 35.1972 -114.1819 236° Southwest 478 550 40,300 -920 Descending Los Angeles Center
Wed 02:46:33 PM 35.1100 -114.3406 236° Southwest 471 542 39,400 -1,113 Descending Los Angeles Center
Wed 02:47:35 PM 35.0497 -114.4781 242° Southwest 463 533 38,000 -1,161 Descending Los Angeles Center
Wed 02:48:37 PM 35.0272 -114.6400 260° West 481 554 37,000 -1,008 Descending Los Angeles Center
Wed 02:49:40 PM 35.0097 -114.7961 262° West 471 542 35,900 -1,008 Descending Los Angeles Center
Wed 02:50:42 PM 34.9900 -114.9556 261° West 472 543 34,900 -1,065 Descending Los Angeles Center
Wed 02:51:44 PM 34.9661 -115.1492 261° West 479 551 33,700 -919 Descending Los Angeles Center
Wed 02:52:46 PM 34.9492 -115.2736 261° West 420 483 33,000 -339 Descending Los Angeles Center
Wed 02:53:48 PM 34.9344 -115.4075 262° West 402 463 33,000  Level Los Angeles Center
Wed 02:54:50 PM 34.9161 -115.5539 261° West 401 461 33,000  Level Los Angeles Center
Wed 02:55:52 PM 34.8978 -115.7028 262° West 402 463 33,000 -1,008 Level Los Angeles Center
Wed 02:56:55 PM 34.8803 -115.8336 261° West 395 455 30,900 -2,016 Descending Los Angeles Center
Wed 02:57:57 PM 34.8631 -115.9606 261° West 385 443 28,800 -1,984 Descending Los Angeles Center
Wed 02:58:59 PM 34.8467 -116.0847 261° West 378 435 26,800 -1,984 Descending Los Angeles Center
Wed 03:00:01 PM 34.8314 -116.2039 261° West 363 418 24,700 -1,355 Descending Los Angeles Center
Wed 03:01:03 PM 34.8139 -116.3386 261° West 391 450 24,000 -1,210 Descending Los Angeles Center
Wed 03:02:05 PM 34.7936 -116.5022 261° West 410 472 22,200 -1,584 Descending Los Angeles Center
Wed 03:03:08 PM 34.7806 -116.6342 263° West 397 457 20,700 -1,056 Descending Los Angeles Center
Wed 03:04:10 PM 34.7678 -116.7703 264° West 402 463 20,000 -339 Descending Los Angeles Center
Wed 03:05:12 PM 34.7539 -116.9003 263° West 393 452 20,000  Level Los Angeles Center
Wed 03:06:14 PM 34.7408 -117.0344 263° West 395 455 20,000  Level Los Angeles Center
Wed 03:07:16 PM 34.7264 -117.1669 262° West 396 456 20,000 -435 Level Los Angeles Center
Wed 03:08:18 PM 34.7103 -117.3239 263° West 389 448 19,100 -1,258 Descending Los Angeles Center
Wed 03:09:20 PM 34.6967 -117.4517 263° West 382 440 17,400 -2,016 Descending Los Angeles Center
Wed 03:10:23 PM 34.6836 -117.5794 263° West 379 436 14,900 -2,016 Descending Los Angeles Center
Wed 03:11:25 PM 34.6692 -117.7064 262° West 377 434 13,200 -961 Descending Los Angeles Center
Wed 03:13:00 PM 34.6422 -117.9207 262° West  Level FlightAware Approximate
Wed 03:15:54 PM 34.6000 -118.2333 107° East 307 353 9,600  Level Southern California TRACON
Wed 03:16:54 PM 34.5667 -118.3333 248° West 291 335 7,900 -950 Descending Southern California TRACON
Wed 03:17:54 PM 34.5333 -118.4167 244° Southwest 295 339 7,700 -500 Descending Southern California TRACON
Wed 03:18:54 PM 34.4833 -118.4833 228° Southwest 287 330 6,900 -850 Descending Southern California TRACON
Wed 03:19:54 PM 34.4500 -118.5833 248° West 294 338 6,000 -450 Descending Southern California TRACON
Wed 03:20:00 PM 34.2007 -118.3587 165° South  Level Estimated
Wed 03:20:54 PM 34.4167 -118.6667 244° Southwest 251 289 6,000  Level Southern California TRACON
Wed 03:21:00 PM 34.2007 -118.3587 107° East  Level Estimated
Wed 03:21:48 PM 34.3667 -118.7000 209° Southwest 238 274 6,000  Level Southern California TRACON
Wed 03:22:54 PM 34.3000 -118.7000 180° South 222 255 5,400 -1,100 Descending Southern California TRACON
Wed 03:23:48 PM 34.2667 -118.6667 140° Southeast 217 250 3,800 -1,105 Descending Southern California TRACON
Wed 03:24:48 PM 34.2167 -118.6167 140° Southeast 192 221 3,300 -397 Descending Southern California TRACON
Wed 03:25:49 PM 34.2000 -118.5667 112° Southeast 169 194 3,000 -150 Descending Southern California TRACON
Wed 03:26:48 PM 34.2000 -118.5167 90° East 170 196 3,000 -350 Level Southern California TRACON
Wed 03:27:49 PM 34.2000 -118.4667 90° East 147 169 2,300 -744 Descending Southern California TRACON
Wed 03:28:49 PM 34.2000 -118.4167 90° East 142 163 1,500 -800 Descending Southern California TRACON

Login

Don't have an account? Register now (free) for customized features, flight alerts, and more!